createdAt,value
2019-04-11T00:00:45.861Z,93187.03
2019-04-11T00:03:15.349Z,93184.10
2019-04-11T00:05:45.300Z,93180.03
2019-04-11T00:08:14.204Z,93177.75
2019-04-11T00:10:42.534Z,93181.69
2019-04-11T00:13:20.148Z,93179.66
2019-04-11T00:15:41.139Z,93183.96
2019-04-11T00:18:10.324Z,93182.33
2019-04-11T00:20:38.942Z,93180.34
2019-04-11T00:23:08.157Z,93188.47
2019-04-11T00:25:37.802Z,93186.52
2019-04-11T00:28:06.093Z,93188.09
2019-04-11T00:30:34.407Z,93184.63
2019-04-11T00:33:03.912Z,93188.34
2019-04-11T00:35:32.400Z,93186.79
2019-04-11T00:38:02.030Z,93188.13
2019-04-11T00:40:30.518Z,93193.27
2019-04-11T00:42:58.951Z,93189.32
2019-04-11T00:45:27.678Z,93193.62
2019-04-11T00:47:57.461Z,93190.70
2019-04-11T00:50:26.034Z,93192.72
2019-04-11T00:52:54.288Z,93190.59
2019-04-11T00:55:23.756Z,93192.23
2019-04-11T00:57:53.005Z,93190.19
2019-04-11T01:00:21.298Z,93187.22
2019-04-11T01:02:51.327Z,93190.77
2019-04-11T01:05:19.577Z,93192.91
2019-04-11T01:07:47.869Z,93189.10
2019-04-11T01:10:16.178Z,93191.64
2019-04-11T01:12:44.905Z,93188.02
2019-04-11T01:15:15.552Z,93188.90
2019-04-11T01:17:43.650Z,93191.07
2019-04-11T01:20:13.237Z,93191.07
2019-04-11T01:22:42.424Z,93188.40
2019-04-11T01:25:10.654Z,93197.50
2019-04-11T01:27:39.949Z,93192.30
2019-04-11T01:30:13.775Z,93194.13
2019-04-11T01:32:42.321Z,93199.26
2019-04-11T01:35:10.335Z,93198.32
2019-04-11T01:37:39.822Z,93194.70
2019-04-11T01:40:09.709Z,93194.20
2019-04-11T01:42:38.244Z,93196.66
2019-04-11T01:45:07.439Z,93198.37
2019-04-11T01:47:57.517Z,93205.42
2019-04-11T01:50:29.277Z,93202.87
2019-04-11T01:52:58.434Z,93201.38
2019-04-11T01:55:26.800Z,93203.90
2019-04-11T01:57:55.158Z,93204.89
2019-04-11T02:00:45.543Z,93199.88
2019-04-11T02:03:15.519Z,93203.48
2019-04-11T02:05:45.263Z,93205.52
2019-04-11T02:08:13.662Z,93205.09
2019-04-11T02:10:43.245Z,93209.67
2019-04-11T02:13:11.978Z,93206.61
2019-04-11T02:15:49.788Z,93210.53
2019-04-11T02:18:19.362Z,93205.70
2019-04-11T02:20:47.990Z,93208.63
2019-04-11T02:23:27.274Z,93212.55
2019-04-11T02:26:11.487Z,93212.87
2019-04-11T02:28:39.698Z,93218.59
2019-04-11T02:31:10.170Z,93224.19
2019-04-11T02:33:38.929Z,93219.88
2019-04-11T02:36:09.199Z,93225.98
2019-04-11T02:38:38.927Z,93223.00
2019-04-11T02:41:08.567Z,93231.27
2019-04-11T02:43:40.123Z,93227.13
2019-04-11T02:46:17.530Z,93225.98
2019-04-11T02:48:38.075Z,93229.84
2019-04-11T02:51:07.643Z,93224.70
2019-04-11T02:53:36.811Z,93229.72
2019-04-11T02:56:09.283Z,93228.52
2019-04-11T02:58:39.060Z,93226.59
2019-04-11T03:01:09.696Z,93228.97
2019-04-11T03:03:39.416Z,93238.09
2019-04-11T03:06:09.260Z,93229.25
2019-04-11T03:08:38.808Z,93232.22
2019-04-11T03:11:10.627Z,93234.05
2019-04-11T03:13:38.780Z,93243.20
2019-04-11T03:16:23.565Z,93244.55
2019-04-11T03:18:54.829Z,93244.38
2019-04-11T03:21:13.400Z,93246.67
2019-04-11T03:23:37.544Z,93242.93
2019-04-11T03:26:07.385Z,93245.08
2019-04-11T03:28:38.297Z,93247.28
2019-04-11T03:31:42.457Z,93255.98
2019-04-11T03:34:32.729Z,93253.03
2019-04-11T03:37:01.220Z,93251.02
2019-04-11T03:39:01.841Z,93250.45
2019-04-11T03:41:24.985Z,93248.94
2019-04-11T03:43:48.591Z,93260.84
2019-04-11T03:46:24.866Z,93257.19
2019-04-11T03:48:51.143Z,93264.94
2019-04-11T03:51:08.938Z,93263.27
2019-04-11T03:53:38.520Z,93264.94
2019-04-11T03:56:07.616Z,93264.63
2019-04-11T03:58:37.199Z,93268.69
2019-04-11T04:01:08.394Z,93267.95
2019-04-11T04:03:36.597Z,93263.80
2019-04-11T04:06:06.846Z,93263.89
2019-04-11T04:08:38.566Z,93271.84
2019-04-11T04:11:12.319Z,93273.94
2019-04-11T04:13:47.622Z,93271.84
2019-04-11T04:16:35.931Z,93277.78
2019-04-11T04:19:22.709Z,93277.44
2019-04-11T04:22:11.376Z,93272.10
2019-04-11T04:24:40.698Z,93268.66
2019-04-11T04:27:10.197Z,93271.72
2019-04-11T04:29:38.780Z,93272.11
2019-04-11T04:32:08.225Z,93272.94
2019-04-11T04:34:37.302Z,93272.53
2019-04-11T04:37:07.749Z,93278.09
2019-04-11T04:39:37.682Z,93277.77
2019-04-11T04:42:17.417Z,93277.06
2019-04-11T04:44:37.954Z,93286.09
2019-04-11T04:47:17.879Z,93286.24
2019-04-11T04:49:36.504Z,93292.25
2019-04-11T04:52:06.121Z,93294.52
2019-04-11T04:54:38.492Z,93296.75
2019-04-11T04:57:09.253Z,93301.84
2019-04-11T04:59:39.520Z,93298.55
2019-04-11T05:02:10.066Z,93302.75
2019-04-11T05:04:38.716Z,93301.84
2019-04-11T05:07:09.605Z,93306.74
2019-04-11T05:09:38.535Z,93305.91
2019-04-11T05:12:07.282Z,93308.87
2019-04-11T05:14:37.253Z,93311.44
2019-04-11T05:17:05.414Z,93307.67
2019-04-11T05:19:35.115Z,93307.91
2019-04-11T05:22:02.709Z,93309.30
2019-04-11T05:24:30.884Z,93311.04
2019-04-11T05:26:59.883Z,93315.60
2019-04-11T05:29:29.233Z,93308.44
2019-04-11T05:31:58.914Z,93317.40
2019-04-11T05:34:28.012Z,93318.77
2019-04-11T05:36:57.633Z,93321.16
2019-04-11T05:39:25.682Z,93321.96
2019-04-11T05:41:56.579Z,93327.79
2019-04-11T05:44:25.057Z,93319.63
2019-04-11T05:46:58.956Z,93334.84
2019-04-11T05:49:38.438Z,93324.29
2019-04-11T05:52:06.611Z,93327.22
2019-04-11T05:54:45.214Z,93320.81
2019-04-11T05:57:13.298Z,93328.48
2019-04-11T05:59:45.984Z,93331.31
2019-04-11T06:02:39.514Z,93333.01
2019-04-11T06:05:31.668Z,93331.16
2019-04-11T06:07:59.921Z,93330.53
2019-04-11T06:10:37.034Z,93327.89
2019-04-11T06:13:14.875Z,93327.53
2019-04-11T06:15:45.736Z,93325.75
2019-04-11T06:18:27.879Z,93321.59
2019-04-11T06:20:53.684Z,93328.72
2019-04-11T06:23:41.570Z,93322.06
2019-04-11T06:26:34.562Z,93324.08
2019-04-11T06:29:16.238Z,93322.27
2019-04-11T06:32:04.014Z,93320.20
2019-04-11T06:34:34.031Z,93320.68
2019-04-11T06:37:21.378Z,93317.66
2019-04-11T06:39:57.773Z,93318.42
2019-04-11T06:42:32.440Z,93328.51
2019-04-11T06:45:35.746Z,93329.69
2019-04-11T06:48:22.253Z,93328.73
2019-04-11T06:51:09.359Z,93336.99
2019-04-11T06:53:40.057Z,93337.34
2019-04-11T06:56:25.562Z,93336.64
2019-04-11T06:58:57.237Z,93345.38
2019-04-11T07:01:27.994Z,93347.48
2019-04-11T07:04:00.846Z,93355.08
2019-04-11T07:06:31.482Z,93362.52
2019-04-11T07:09:18.280Z,93370.48
2019-04-11T07:11:52.635Z,93368.95
2019-04-11T07:14:43.326Z,93371.53
2019-04-11T07:17:29.727Z,93364.45
2019-04-11T07:23:38.417Z,93363.66
2019-04-11T07:26:12.509Z,93370.27
2019-04-11T07:29:04.385Z,93362.97
2019-04-11T07:32:05.023Z,93364.17
2019-04-11T07:35:11.090Z,93358.05
2019-04-11T07:37:40.657Z,93360.44
2019-04-11T07:40:31.192Z,93355.19
2019-04-11T07:43:24.892Z,93362.64
2019-04-11T07:46:09.040Z,93369.00
2019-04-11T07:48:40.315Z,93358.67
2019-04-11T07:51:28.091Z,93359.49
2019-04-11T07:53:57.180Z,93362.30
2019-04-11T07:56:48.519Z,93359.96
2019-04-11T07:59:27.080Z,93356.62
2019-04-11T08:02:22.376Z,93359.39
2019-04-11T08:05:16.161Z,93363.16
2019-04-11T08:07:59.528Z,93356.08
2019-04-11T08:10:33.073Z,93360.80
2019-04-11T08:13:04.534Z,93366.19
2019-04-11T08:15:52.046Z,93363.19
2019-04-11T08:18:41.078Z,93366.25
2019-04-11T08:21:28.213Z,93369.92
2019-04-11T08:23:58.975Z,93365.89
2019-04-11T08:26:59.290Z,93363.44
2019-04-11T08:29:28.631Z,93361.94
2019-04-11T08:32:15.745Z,93360.08
2019-04-11T08:34:51.524Z,93367.95
2019-04-11T08:37:39.995Z,93371.39
2019-04-11T08:40:09.390Z,93378.66
2019-04-11T08:43:06.641Z,93372.42
2019-04-11T08:45:38.182Z,93382.64
2019-04-11T08:48:07.216Z,93385.58
2019-04-11T08:50:38.664Z,93389.98
2019-04-11T08:53:24.694Z,93396.97
2019-04-11T08:55:59.444Z,93396.88
2019-04-11T08:58:53.098Z,93397.78
2019-04-11T09:01:24.221Z,93400.09
2019-04-11T09:04:20.399Z,93397.30
2019-04-11T09:06:49.223Z,93392.52
2019-04-11T09:09:49.357Z,93404.00
2019-04-11T09:12:18.417Z,93399.84
2019-04-11T09:15:12.697Z,93404.27
2019-04-11T09:18:07.661Z,93404.16
2019-04-11T09:20:58.631Z,93400.81
2019-04-11T09:23:27.942Z,93404.78
2019-04-11T09:26:30.359Z,93403.06
2019-04-11T09:28:59.858Z,93401.41
2019-04-11T09:31:48.681Z,93401.77
2019-04-11T09:34:36.232Z,93402.97
2019-04-11T09:37:22.135Z,93402.51
2019-04-11T09:40:24.000Z,93398.81
2019-04-11T09:43:05.120Z,93402.48
2019-04-11T09:45:54.274Z,93401.79
2019-04-11T09:48:31.516Z,93398.89
2019-04-11T09:51:29.460Z,93401.16
2019-04-11T09:54:05.640Z,93399.56
2019-04-11T09:57:00.133Z,93405.78
2019-04-11T09:59:41.135Z,93405.45
2019-04-11T10:02:27.747Z,93400.16
2019-04-11T10:04:58.384Z,93396.62
2019-04-11T10:07:44.479Z,93398.41
2019-04-11T10:10:35.278Z,93400.99
2019-04-11T10:13:21.062Z,93404.98
2019-04-11T10:16:09.661Z,93400.95
2019-04-11T10:18:59.848Z,93409.86
2019-04-11T10:21:28.984Z,93398.08
2019-04-11T10:24:20.627Z,93405.16
2019-04-11T10:26:52.170Z,93400.84
2019-04-11T10:29:54.662Z,93405.23
2019-04-11T10:32:25.848Z,93399.92
2019-04-11T10:35:18.424Z,93405.88
2019-04-11T10:37:45.856Z,93409.80
2019-04-11T10:40:45.128Z,93403.09
2019-04-11T10:43:13.438Z,93403.03
2019-04-11T10:45:58.703Z,93415.16
2019-04-11T10:48:36.885Z,93413.90
2019-04-11T10:51:15.038Z,93419.01
2019-04-11T10:53:43.719Z,93421.70
2019-04-11T10:56:34.743Z,93420.31
2019-04-11T10:59:05.086Z,93411.95
2019-04-11T11:02:01.861Z,93410.38
2019-04-11T11:04:35.339Z,93414.11
2019-04-11T11:07:06.487Z,93419.83
2019-04-11T11:09:39.439Z,93415.14
2019-04-11T11:12:19.016Z,93420.09
2019-04-11T11:15:03.197Z,93417.20
2019-04-11T11:18:20.630Z,93422.42
2019-04-11T11:20:45.527Z,93421.33
2019-04-11T11:23:29.169Z,93420.41
2019-04-11T11:26:19.810Z,93424.44
2019-04-11T11:29:09.957Z,93416.08
2019-04-11T11:31:40.874Z,93420.70
2019-04-11T11:34:30.476Z,93413.31
2019-04-11T11:37:37.520Z,93420.02
2019-04-11T11:40:25.787Z,93429.72
2019-04-11T11:43:31.439Z,93418.06
2019-04-11T11:46:31.712Z,93422.02
2019-04-11T11:49:03.910Z,93419.80
2019-04-11T11:51:59.292Z,93425.23
2019-04-11T11:54:31.826Z,93426.70
2019-04-11T11:57:04.601Z,93427.09
2019-04-11T11:59:48.375Z,93426.20
2019-04-11T12:02:36.900Z,93428.52
2019-04-11T12:05:18.663Z,93426.34
2019-04-11T12:08:13.311Z,93429.13
2019-04-11T12:10:58.011Z,93430.81
2019-04-11T12:13:45.724Z,93423.62
2019-04-11T12:16:39.742Z,93423.08
2019-04-11T12:19:44.740Z,93424.41
2019-04-11T12:22:04.307Z,93427.03
2019-04-11T12:24:54.423Z,93428.20
2019-04-11T12:27:54.172Z,93423.13
2019-04-11T12:30:34.428Z,93416.20
2019-04-11T12:33:25.674Z,93416.64
2019-04-11T12:36:12.559Z,93426.39
2019-04-11T12:39:15.840Z,93424.30
2019-04-11T12:42:09.295Z,93428.00
2019-04-11T12:44:45.945Z,93421.13
2019-04-11T12:47:32.654Z,93419.88
2019-04-11T12:50:29.181Z,93423.85
2019-04-11T12:53:26.295Z,93426.86
2019-04-11T12:56:10.465Z,93430.31
2019-04-11T12:58:58.386Z,93434.62
2019-04-11T13:01:46.320Z,93434.62
2019-04-11T13:04:45.696Z,93431.36
2019-04-11T13:07:33.007Z,93431.25
2019-04-11T13:10:17.785Z,93429.48
2019-04-11T13:13:12.030Z,93432.97
2019-04-11T13:15:42.501Z,93431.73
2019-04-11T13:18:36.053Z,93430.41
2019-04-11T13:21:22.147Z,93428.88
2019-04-11T13:24:08.039Z,93431.23
2019-04-11T13:27:07.334Z,93437.77
2019-04-11T13:29:57.606Z,93435.75
2019-04-11T13:32:26.808Z,93435.14
2019-04-11T13:34:57.861Z,93435.03
2019-04-11T13:37:43.489Z,93431.36
2019-04-11T13:40:31.354Z,93437.67
2019-04-11T13:43:22.036Z,93434.10
2019-04-11T13:46:19.162Z,93438.25
2019-04-11T13:49:01.194Z,93439.28
2019-04-11T13:51:58.112Z,93439.86
2019-04-11T13:55:00.792Z,93439.98
2019-04-11T13:57:57.610Z,93442.35
2019-04-11T14:00:44.357Z,93439.66
2019-04-11T14:03:44.035Z,93442.78
2019-04-11T14:06:44.985Z,93443.67
2019-04-11T14:09:38.808Z,93437.59
2019-04-11T14:12:11.706Z,93434.72
2019-04-11T14:14:58.316Z,93428.76
2019-04-11T14:17:44.796Z,93427.09
2019-04-11T14:20:31.891Z,93424.32
2019-04-11T14:23:28.938Z,93419.16
2019-04-11T14:26:16.766Z,93419.12
2019-04-11T14:28:48.155Z,93416.41
2019-04-11T14:31:34.196Z,93423.14
2019-04-11T14:34:07.711Z,93428.11
2019-04-11T14:36:50.113Z,93430.56
2019-04-11T14:39:18.916Z,93425.56
2019-04-11T14:42:15.312Z,93430.79
2019-04-11T14:44:43.652Z,93432.96
2019-04-11T14:47:40.146Z,93433.64
2019-04-11T14:50:11.167Z,93437.98
2019-04-11T14:52:58.512Z,93439.48
2019-04-11T14:55:27.307Z,93439.48
2019-04-11T14:58:10.505Z,93441.87
2019-04-11T15:00:40.541Z,93440.02
2019-04-11T15:03:30.828Z,93447.38
2019-04-11T15:06:17.197Z,93440.06
2019-04-11T15:09:03.622Z,93437.23
2019-04-11T15:11:47.165Z,93434.37
2019-04-11T15:14:27.762Z,93431.12
2019-04-11T15:17:29.362Z,93431.90
2019-04-11T15:20:19.271Z,93432.36
2019-04-11T15:23:07.511Z,93443.36
2019-04-11T15:25:55.541Z,93444.09
2019-04-11T15:28:49.262Z,93449.50
2019-04-11T15:31:39.398Z,93458.06
2019-04-11T15:34:23.782Z,93449.42
2019-04-11T15:37:10.285Z,93446.37
2019-04-11T15:39:56.772Z,93434.41
2019-04-11T15:42:40.208Z,93431.36
2019-04-11T15:45:20.983Z,93435.61
2019-04-11T15:48:05.869Z,93431.33
2019-04-11T15:50:52.461Z,93427.33
2019-04-11T15:53:25.571Z,93433.79
2019-04-11T15:56:12.222Z,93429.48
2019-04-11T15:58:45.517Z,93431.02
2019-04-11T16:01:31.165Z,93427.31
2019-04-11T16:04:08.608Z,93433.80
2019-04-11T16:06:52.031Z,93432.33
2019-04-11T16:09:21.028Z,93435.52
2019-04-11T16:12:01.484Z,93436.33
2019-04-11T16:14:31.907Z,93441.89
2019-04-11T16:17:34.343Z,93436.70
2019-04-11T16:20:09.119Z,93439.11
2019-04-11T16:22:55.088Z,93442.20
2019-04-11T16:25:23.388Z,93453.52
2019-04-11T16:28:10.116Z,93457.65
2019-04-11T16:30:40.897Z,93463.53
2019-04-11T16:33:40.262Z,93460.39
2019-04-11T16:36:17.486Z,93468.78
2019-04-11T16:38:56.256Z,93462.86
2019-04-11T16:41:42.421Z,93465.59
2019-04-11T16:44:13.331Z,93468.98
2019-04-11T16:46:58.887Z,93472.50
2019-04-11T16:49:35.903Z,93473.03
2019-04-11T16:52:07.357Z,93470.65
2019-04-11T16:54:34.311Z,93472.94
2019-04-11T16:57:02.178Z,93477.33
2019-04-11T16:59:30.453Z,93476.62
2019-04-11T17:01:58.069Z,93475.20
2019-04-11T17:04:26.530Z,93470.67
2019-04-11T17:07:32.038Z,93478.63
2019-04-11T17:10:00.627Z,93481.84
2019-04-11T17:12:29.328Z,93484.01
2019-04-11T17:14:57.718Z,93488.11
2019-04-11T17:17:26.355Z,93489.68
2019-04-11T17:19:54.787Z,93488.47
2019-04-11T17:22:23.558Z,93491.34
2019-04-11T17:24:51.893Z,93493.45
2019-04-11T17:27:20.993Z,93491.30
2019-04-11T17:29:50.261Z,93492.37
2019-04-11T17:32:18.511Z,93498.72
2019-04-11T17:34:46.961Z,93496.58
2019-04-11T17:37:16.567Z,93498.66
2019-04-11T17:39:45.229Z,93499.00
2019-04-11T17:42:14.076Z,93508.23
2019-04-11T17:44:42.423Z,93508.56
2019-04-11T17:47:10.132Z,93509.36
2019-04-11T17:49:38.376Z,93505.13
2019-04-11T17:52:07.061Z,93510.49
2019-04-11T17:54:34.701Z,93515.28
2019-04-11T17:57:03.013Z,93517.63
2019-04-11T17:59:32.437Z,93516.94
2019-04-11T18:02:00.796Z,93516.68
2019-04-11T18:04:29.510Z,93522.23
2019-04-11T18:06:57.512Z,93525.83
2019-04-11T18:09:26.434Z,93535.30
2019-04-11T18:11:56.105Z,93537.60
2019-04-11T18:14:23.837Z,93538.58
2019-04-11T18:16:52.523Z,93536.53
2019-04-11T18:19:21.240Z,93541.21
2019-04-11T18:21:49.929Z,93545.03
2019-04-11T18:24:19.986Z,93551.02
2019-04-11T18:26:51.757Z,93553.23
2019-04-11T18:29:18.036Z,93550.78
2019-04-11T18:31:46.263Z,93553.56
2019-04-11T18:34:14.551Z,93549.04
2019-04-11T18:36:42.966Z,93555.54
2019-04-11T18:39:11.596Z,93564.70
2019-04-11T18:41:40.128Z,93566.48
2019-04-11T18:44:08.981Z,93562.39
2019-04-11T18:46:39.196Z,93574.70
2019-04-11T18:49:07.581Z,93571.55
2019-04-11T18:51:36.030Z,93574.75
2019-04-11T18:54:04.862Z,93572.53
2019-04-11T18:56:33.245Z,93574.27
2019-04-11T18:59:03.353Z,93573.20
2019-04-11T19:01:32.187Z,93575.23
2019-04-11T19:04:00.851Z,93572.69
2019-04-11T19:06:29.131Z,93571.84
2019-04-11T19:08:57.671Z,93577.00
2019-04-11T19:11:26.416Z,93582.03
2019-04-11T19:13:55.196Z,93582.14
2019-04-11T19:16:23.568Z,93593.21
2019-04-11T19:18:52.086Z,93601.55
2019-04-11T19:21:21.173Z,93591.59
2019-04-11T19:23:49.869Z,93600.25
2019-04-11T19:26:18.224Z,93594.88
2019-04-11T19:28:46.138Z,93596.64
2019-04-11T19:31:14.487Z,93593.99
2019-04-11T19:33:43.551Z,93590.08
2019-04-11T19:36:12.383Z,93592.13
2019-04-11T19:38:43.353Z,93597.31
2019-04-11T19:41:11.947Z,93597.70
2019-04-11T19:43:40.929Z,93594.83
2019-04-11T19:46:11.454Z,93591.11
2019-04-11T19:48:40.142Z,93594.14
2019-04-11T19:51:07.632Z,93596.78
2019-04-11T19:53:36.424Z,93600.27
2019-04-11T19:56:11.239Z,93600.55
2019-04-11T19:58:39.453Z,93597.09
2019-04-11T20:01:09.689Z,93599.29
2019-04-11T20:03:38.044Z,93596.35
2019-04-11T20:06:07.582Z,93595.08
2019-04-11T20:08:36.349Z,93590.15
2019-04-11T20:11:05.206Z,93595.95
2019-04-11T20:13:34.367Z,93594.69
2019-04-11T20:16:04.629Z,93590.44
2019-04-11T20:18:33.849Z,93590.92
2019-04-11T20:21:07.282Z,93589.84
2019-04-11T20:23:34.020Z,93588.61
2019-04-11T20:26:02.812Z,93587.59
2019-04-11T20:28:32.387Z,93585.92
2019-04-11T20:31:00.788Z,93585.91
2019-04-11T20:33:33.887Z,93580.33
2019-04-11T20:36:00.098Z,93576.91
2019-04-11T20:38:29.944Z,93578.13
2019-04-11T20:40:59.889Z,93580.33
2019-04-11T20:43:28.781Z,93583.03
2019-04-11T20:45:58.577Z,93583.86
2019-04-11T20:48:27.687Z,93579.58
2019-04-11T20:50:58.932Z,93583.43
2019-04-11T20:53:27.664Z,93579.97
2019-04-11T20:55:56.743Z,93576.16
2019-04-11T20:58:27.508Z,93582.95
2019-04-11T21:00:56.624Z,93585.84
2019-04-11T21:03:25.371Z,93581.64
2019-04-11T21:05:55.142Z,93586.48
2019-04-11T21:08:23.967Z,93584.83
2019-04-11T21:10:52.827Z,93583.20
2019-04-11T21:13:20.404Z,93590.50
2019-04-11T21:15:48.997Z,93587.89
2019-04-11T21:18:17.613Z,93589.23
2019-04-11T21:20:47.390Z,93587.36
2019-04-11T21:23:24.460Z,93585.38
2019-04-11T21:25:46.813Z,93593.45
2019-04-11T21:28:15.500Z,93588.92
2019-04-11T21:30:43.684Z,93593.48
2019-04-11T21:33:16.144Z,93590.87
2019-04-11T21:35:45.231Z,93593.52
2019-04-11T21:38:15.908Z,93595.66
2019-04-11T21:40:45.088Z,93604.17
2019-04-11T21:43:14.933Z,93600.34
2019-04-11T21:45:45.117Z,93604.54
2019-04-11T21:48:13.555Z,93603.64
2019-04-11T21:50:42.263Z,93608.71
2019-04-11T21:53:14.056Z,93611.65
2019-04-11T21:55:40.905Z,93606.64
2019-04-11T21:58:08.873Z,93611.75
2019-04-11T22:00:40.310Z,93613.02
2019-04-11T22:03:10.328Z,93608.85
2019-04-11T22:05:39.234Z,93612.69
2019-04-11T22:08:07.569Z,93609.45
2019-04-11T22:10:40.080Z,93611.58
2019-04-11T22:13:09.759Z,93613.69
2019-04-11T22:15:37.287Z,93610.75
2019-04-11T22:18:05.628Z,93613.28
2019-04-11T22:20:35.286Z,93608.80
2019-04-11T22:23:03.143Z,93615.63
2019-04-11T22:25:32.800Z,93610.59
2019-04-11T22:28:01.472Z,93610.21
2019-04-11T22:30:30.126Z,93617.92
2019-04-11T22:33:02.917Z,93611.22
2019-04-11T22:35:31.055Z,93614.72
2019-04-11T22:38:00.370Z,93614.37
2019-04-11T22:40:31.442Z,93611.06
2019-04-11T22:42:58.921Z,93610.17
2019-04-11T22:45:28.893Z,93612.28
2019-04-11T22:47:57.209Z,93610.70
2019-04-11T22:50:26.457Z,93613.34
2019-04-11T22:52:55.174Z,93616.38
2019-04-11T22:55:23.495Z,93612.99
2019-04-11T22:57:51.718Z,93608.70
2019-04-11T23:00:20.482Z,93607.80
2019-04-11T23:02:58.678Z,93610.81
2019-04-11T23:05:26.243Z,93610.89
2019-04-11T23:07:54.994Z,93615.95
2019-04-11T23:10:23.218Z,93608.39
2019-04-11T23:12:51.903Z,93611.31
2019-04-11T23:15:20.496Z,93607.64
2019-04-11T23:17:49.072Z,93606.47
2019-04-11T23:20:17.617Z,93605.27
2019-04-11T23:22:46.253Z,93608.67
2019-04-11T23:25:14.887Z,93602.77
2019-04-11T23:27:44.388Z,93601.47
2019-04-11T23:30:15.974Z,93607.81
2019-04-11T23:32:43.834Z,93609.52
2019-04-11T23:35:11.873Z,93606.13
2019-04-11T23:37:51.065Z,93607.00
2019-04-11T23:40:21.043Z,93607.45
2019-04-11T23:42:50.837Z,93608.75
2019-04-11T23:45:23.132Z,93608.31
2019-04-11T23:47:54.068Z,93605.75
2019-04-11T23:50:24.924Z,93604.88
2019-04-11T23:52:52.465Z,93603.58
2019-04-11T23:55:21.409Z,93604.38
2019-04-11T23:57:50.137Z,93603.14
